In Rescue
 
Open Full Screen Window  High Contrast Mode
Wind Gusting 00 knots
04
November 29, 2022 10:43 AM EST
Weather Information
Wind Direction
  150 °
Wind Speed
  04 kt (5 mph)
Wind Gust
  00 kt (0 mph)
Altimeter
30.03 in
Visibility
7 SM
Temperature
10° C
50° F
Dewpoint
06° C
43° F
Humidity
76%
Sky Condition
Overcast @ 3,200 ft
VFR

METAR KVLL 291543Z AUTO 15004KT 7SM OVC032 10/06 A3003 RMK AO2 T00980058

FAA Disclaimer: The data displayed is for advisory purposes only and is not to be used for flight planning or operations.